Aktuální počasí v Česku a ve světě - METAR

Seznam meteostanic umístěných nejčasteji na letišti v ČR a ve světě

Vyhledat místa podle abecedy:
A B C D E F G H I J K L M N O P Q R S T U V W X Y Z

Filtrovat:

ID stanice:
a/nebo
Název místa (fulltext):
 
Místo (ID)Naposledy načteno 
Liberec (Liberec) 07.08.2020 03:00 UTC Zobrazit data
Místo: Liberec
Teplota: 14 °C (pocitová: 12.9 °C)
Vítr: 1 m/s z(e) 130°
Počasí:
Dohlednost: 15 km
Zákl. oblačnosti: N/A
Vlhkost: 94%
Luká (Luka) 07.08.2020 03:00 UTC Zobrazit data
Místo: Luká
Teplota: 17 °C (pocitová: 15.9 °C)
Vítr: 2 m/s z(e) 330°
Počasí: skorojasno
Dohlednost: 16 km
Zákl. oblačnosti: 1/8 2100 m
Vlhkost: 88%
Lysá Hora (Lysa Hora) 07.08.2020 03:00 UTC Zobrazit data
Místo: Lysá Hora
Teplota: 17 °C (pocitová: 15.9 °C)
Vítr: 2 m/s z(e) 100°
Počasí:
Dohlednost: 35 km
Zákl. oblačnosti: N/A
Vlhkost: 59%
L'viv (UKLL) 13.12.2012 15:00 UTC  
La Palma (GCLA) 07.08.2020 03:00 UTC Zobrazit METAR
GCLA 070300Z AUTO 01010KT 9999 OVC033 23/16 Q1019
La Paz (SLLP) 07.08.2020 03:00 UTC Zobrazit METAR
SLLP 070300Z VRB02KT 9999 NSC M00/M02 Q1039
Laayoune (GMML) 07.08.2020 03:00 UTC Zobrazit METAR
GMML 070300Z 03019KT 9999 BKN020 22/17 Q1016 NOSIG
Larnaca (LCLK) 07.08.2020 03:00 UTC Zobrazit METAR
LCLK 070300Z 31004KT 4000 BR FEW004 BKN010 24/23 Q1007 BECMG 5000
Leipzig-Halle (EDDP) 07.08.2020 02:50 UTC Zobrazit METAR
EDDP 070250Z 06007KT CAVOK 17/14 Q1021 NOSIG
Libreville (FOOL) 07.08.2020 03:00 UTC Zobrazit METAR
FOOL 070300Z 14006KT 9999 SCT012 24/22 Q1015 NOSIG
Liege (EBLG) 07.08.2020 02:50 UTC Zobrazit METAR
EBLG 070250Z 15007KT 130V210 CAVOK 22/11 Q1020 NOSIG
Liepaja (EVLA) 06.08.2020 10:50 UTC Zobrazit METAR
EVLA 061050Z AUTO 22010KT 190V250 9999 FEW063/// 22/15 Q1025
Lille (LFQQ) 07.08.2020 03:00 UTC Zobrazit METAR
LFQQ 070300Z AUTO 07001KT CAVOK 19/12 Q1018 NOSIG
Lilongwe (FWLI) 04.06.2013 21:00 UTC Zobrazit METAR
FWLI 042100Z 05003KT CAVOK 14/11 Q1023 NOSIG
Lima - Callao (SPIM) 07.06.2019 22:00 UTC Zobrazit METAR
SPIM 072200Z /////KT 9999 BKN035 18/15 Q1015 RMK PP000
Limnos (LGLM) 07.08.2020 02:50 UTC Zobrazit METAR
LGLM 070250Z 04006KT CAVOK 23/18 Q1009
Linz (LOWL) 06.08.2020 23:50 UTC Zobrazit METAR
LOWL 062350Z AUTO 04003KT 020V080 9999 FEW080 19/17 Q1021
Lisbon (LPPT) 07.08.2020 03:00 UTC Zobrazit METAR
LPPT 070300Z 32010KT CAVOK 19/16 Q1015
Liverpool (EGGP) 07.08.2020 02:50 UTC Zobrazit METAR
EGGP 070250Z AUTO 07003KT 9999 OVC038/// 18/17 Q1017
Ljubljana (LJLJ) 07.08.2020 03:00 UTC Zobrazit METAR
LJLJ 070300Z VRB01KT 9999 FEW080 15/14 Q1020 NOSIG
Lome (DXXX) 07.08.2020 03:00 UTC Zobrazit METAR
DXXX 070300Z 24011KT 9999 SCT009 23/21 Q1014 NOSIG
London (EGLL) 06.08.2020 14:50 UTC Zobrazit METAR
EGLL 061450Z AUTO 20007KT 160V280 9999 SCT044 29/16 Q1017 NOSIG
Luanda (FNLU) 07.08.2020 03:00 UTC Zobrazit METAR
FNLU 070300Z 14004KT 7000 BKN020 21/19 Q1014
Lulea (ESPA) 07.08.2020 02:50 UTC Zobrazit METAR
ESPA 070250Z AUTO 25004KT 9999 SCT086/// BKN110/// 16/14 Q1021
Lusaka (FLLS) 13.01.2014 07:00 UTC Zobrazit METAR
FLLS 130700Z 36009KT CAVOK 25/20 Q1019
Luxembourg Airport (ELLX) 07.08.2020 02:50 UTC Zobrazit METAR
ELLX 070250Z 03007KT CAVOK 21/12 Q1021 NOSIG
Lyon (LFLL) 07.08.2020 03:00 UTC Zobrazit METAR
LFLL 070300Z 16005KT CAVOK 20/12 Q1018 NOSIG
Reklama

Počasí na Váš email

Emaily jsou bez reklamy a bez spamu



Odhlásit newsletter





❤️ Podpořte nás

Napište o nás recenzi na Google
Ohodnoťte nás na Firmy.cz

Pošlete nám finanční podporu - firma nedostala žádné dotace ani podporu z Coronaviru, zato letos platíme vyšší daně.
Další české internetové stránky (nejen) o počasí najdete v katalogu TOPlist - weby o počasí nebo vyhledejte na internetu, co jste tu na 🌞 Slunečnu ⛅ zatím nenašli:
⭐ Přidat Slunečno.cz do oblíbených | 🏠 Nastavit Slunečno.cz jako HOMEPAGE

⬆️ Posunout stránku nahoru ⬆️
Reklama